»·PEaware :: N235B KBUR-KLAS

N235B :: KBUR-KLAS

FLIGHT INFORMATION

Flight Status: Arrived
Operator: Privately registered:
United States
More flights under this callsign
Pilot: Jason D. (29273)
Aircraft: ECLIPSE 500
(EA50)
More flights by this aircraft type
Origin: KBUR Bob Hope-Burbank
United States
Destination: KLAS McCarran Intl
United States
More flights between these airports :: More routes between these airports
Route: +SLAPP1 MISEN KEPEC6
File this flight plan on PilotEdge
Remarks:
Altitude:
(Current/Filed)
23,000ft
Speed:
(Current/Filed)
250kts
Departed: 14-Aug-20 06:01 PM
Arrived: 14-Aug-20 07:09 PM
Distance/Time
Traveled:
194nm/1:08
Distance/Time
To Go:
Arrived

Flight Plot

Page will automatically refresh every two minutes.

Flight plan parsing failed; only flown route is shown


Map Options




Map Legend


Flown Route
Filed Route
Departure Airport
Arrival Airport
Navaid (VOR, NDB)
Fix

Horizontal Profiles

Position Reports

Time Latitude Longitude Heading Altitude Ground
Speed
14-Aug-20 17:42 34.201349 -118.359773 154 726ft 0kts
14-Aug-20 17:43 34.201349 -118.359773 154 726ft 0kts
14-Aug-20 17:44 34.201349 -118.359773 154 726ft 0kts
14-Aug-20 17:45 34.201349 -118.359773 154 726ft 0kts
14-Aug-20 17:46 34.201349 -118.359773 154 726ft 0kts
14-Aug-20 17:47 34.201349 -118.359773 154 726ft 0kts
14-Aug-20 17:48 34.201349 -118.359773 154 726ft 0kts
14-Aug-20 17:49 34.201349 -118.359773 154 726ft 0kts
14-Aug-20 17:50 34.201349 -118.359773 154 726ft 0kts
14-Aug-20 17:51 34.201349 -118.359773 154 726ft 0kts
14-Aug-20 17:52 34.202087 -118.358827 357 727ft 5kts
14-Aug-20 17:53 34.205258 -118.359680 347 738ft 15kts
14-Aug-20 17:54 34.209624 -118.360886 345 759ft 15kts
14-Aug-20 17:55 34.211934 -118.361358 30 767ft 0kts
14-Aug-20 17:56 34.211934 -118.361358 30 767ft 0kts
14-Aug-20 17:57 34.211934 -118.361358 30 767ft 0kts
14-Aug-20 17:58 34.211934 -118.361358 30 767ft 0kts
14-Aug-20 17:59 34.212061 -118.361231 54 768ft 10kts
14-Aug-20 18:00 34.210759 -118.360002 168 762ft 44kts
14-Aug-20 18:01 34.182968 -118.356972 200 1611ft 150kts
14-Aug-20 18:02 34.159322 -118.393783 220 3985ft 157kts
14-Aug-20 18:03 34.168150 -118.426897 351 5833ft 139kts
14-Aug-20 18:04 34.206725 -118.432339 6 6758ft 160kts
14-Aug-20 18:05 34.253234 -118.412315 21 8059ft 170kts
14-Aug-20 18:06 34.299178 -118.391644 20 9400ft 171kts
14-Aug-20 18:08 34.343825 -118.371623 21 10659ft 172kts
14-Aug-20 18:09 34.388720 -118.351807 20 11890ft 172kts
14-Aug-20 18:10 34.433665 -118.332465 21 13047ft 171kts
14-Aug-20 18:11 34.475570 -118.306903 44 14101ft 169kts
14-Aug-20 18:12 34.511830 -118.270735 40 15083ft 170kts
14-Aug-20 18:13 34.549509 -118.235813 40 16012ft 171kts
14-Aug-20 18:14 34.587511 -118.200762 40 16886ft 172kts
14-Aug-20 18:15 34.625651 -118.165718 40 17709ft 173kts
14-Aug-20 18:16 34.661271 -118.128021 76 18475ft 166kts
14-Aug-20 18:17 34.674441 -118.074304 78 19215ft 166kts
14-Aug-20 18:18 34.687780 -118.020277 78 19922ft 167kts
14-Aug-20 18:19 34.701262 -117.966141 82 20590ft 167kts
14-Aug-20 18:20 34.708853 -117.910653 86 21224ft 167kts
14-Aug-20 18:21 34.716455 -117.854929 86 21827ft 167kts
14-Aug-20 18:22 34.724223 -117.799050 86 22406ft 168kts
14-Aug-20 18:23 34.730174 -117.742802 92 22969ft 168kts
14-Aug-20 18:24 34.733041 -117.680298 94 23019ft 204kts
14-Aug-20 18:25 34.726849 -117.604430 101 23038ft 253kts
14-Aug-20 18:25 34.720912 -117.528453 86 23044ft 293kts
14-Aug-20 18:26 34.746279 -117.427690 71 23039ft 327kts
14-Aug-20 18:28 34.784931 -117.303381 72 23031ft 347kts
14-Aug-20 18:28 34.813606 -117.210703 72 23004ft 355kts
14-Aug-20 18:29 34.848674 -117.097020 72 22953ft 361kts
14-Aug-20 18:31 34.889067 -116.962668 72 22928ft 365kts
14-Aug-20 18:31 34.917032 -116.864835 71 22928ft 369kts
14-Aug-20 18:32 34.955647 -116.750621 71 22899ft 355kts
14-Aug-20 18:33 34.994622 -116.644587 59 22927ft 330kts
14-Aug-20 18:34 35.037494 -116.549711 59 22994ft 312kts
14-Aug-20 18:35 35.078396 -116.456218 59 22437ft 322kts
14-Aug-20 18:36 35.130982 -116.366058 36 21262ft 335kts
14-Aug-20 18:37 35.203580 -116.292534 37 20063ft 343kts
14-Aug-20 18:38 35.271508 -116.210495 47 18859ft 347kts
14-Aug-20 18:39 35.334766 -116.121192 47 17654ft 347kts
14-Aug-20 18:40 35.397898 -116.032217 46 16451ft 345kts
14-Aug-20 18:41 35.460655 -115.943863 46 15252ft 343kts
14-Aug-20 18:42 35.523243 -115.855966 46 14052ft 341kts
14-Aug-20 18:43 35.585309 -115.769000 46 13044ft 332kts
14-Aug-20 18:44 35.643909 -115.686949 42 13034ft 315kts
14-Aug-20 18:45 35.702267 -115.605099 46 13037ft 322kts
14-Aug-20 18:46 35.770045 -115.528919 9 11950ft 341kts
14-Aug-20 18:47 35.862166 -115.516957 3 11089ft 312kts
14-Aug-20 18:48 35.942428 -115.506662 4 10019ft 273kts
14-Aug-20 18:49 36.013799 -115.481491 54 9997ft 287kts
14-Aug-20 18:50 36.022055 -115.384315 95 9983ft 295kts
14-Aug-20 18:51 36.012298 -115.279767 96 8990ft 320kts
14-Aug-20 18:52 36.012220 -115.170373 85 8060ft 323kts
14-Aug-20 18:53 36.016358 -115.062753 87 8006ft 306kts
14-Aug-20 18:54 36.008333 -114.959288 95 7989ft 301kts
14-Aug-20 18:55 35.999321 -114.860364 95 7988ft 272kts
14-Aug-20 18:56 35.992294 -114.771578 93 7941ft 250kts
14-Aug-20 18:57 36.028098 -114.711415 349 6990ft 253kts
14-Aug-20 18:58 36.065592 -114.776475 318 7102ft 259kts
14-Aug-20 18:59 36.119344 -114.839050 299 6748ft 256kts
14-Aug-20 19:00 36.173144 -114.886057 331 6954ft 248kts
14-Aug-20 19:01 36.238653 -114.925458 331 6187ft 275kts
14-Aug-20 19:02 36.304795 -114.966762 314 5699ft 235kts
14-Aug-20 19:03 36.282562 -115.021814 210 5742ft 209kts
14-Aug-20 19:04 36.233956 -115.060644 215 5434ft 216kts
14-Aug-20 19:05 36.184482 -115.100247 215 4991ft 220kts
14-Aug-20 19:06 36.137985 -115.134563 206 4110ft 226kts
14-Aug-20 19:07 36.094553 -115.159316 209 2148ft 149kts
14-Aug-20 19:08 36.078954 -115.166948 147 2164ft 0kts
14-Aug-20 19:09 36.078954 -115.166948 147 2164ft 0kts
14-Aug-20 19:10 36.081205 -115.165481 25 2152ft 29kts
14-Aug-20 19:11 36.090036 -115.160504 26 2117ft 45kts

Navigation Log

Ident Type
Flight plan parsing failed, navigation log unavailable